Time;durP1;ratioP1;P1;durP2;ratioP2;P2;SDS_P1;SDS_P2;PMS_P1;PMS_P2;Temp;Humidity;BMP_temperature;BMP_pressure;BME280_temperature;BME280_humidity;BME280_pressure;Samples;Min_cycle;Max_cycle;Signal;HPM_P1;HPM_P2
2023/02/15 00:01:44;;;;;;;2.50;1.30;;;;;;;1.76;55.44;100256.11;107106;1263;69601;-40
2023/02/15 00:04:14;;;;;;;3.60;1.70;;;;;;;1.78;55.68;100253.80;107026;1260;73856;-40
2023/02/15 00:06:45;;;;;;;4.70;2.00;;;;;;;1.82;55.89;100254.52;107073;1260;60372;-40
2023/02/15 00:09:13;;;;;;;5.00;1.90;;;;;;;1.87;56.00;100257.42;107092;1261;59644;-40
2023/02/15 00:11:51;;;;;;;4.90;2.00;;;;;;;1.90;56.15;100263.92;107100;1258;73512;-40
2023/02/15 00:14:21;;;;;;;5.90;1.60;;;;;;;1.94;56.20;100265.16;107084;1263;69968;-40
2023/02/15 00:16:51;;;;;;;5.80;1.50;;;;;;;1.97;56.25;100266.52;107069;1261;73860;-40
2023/02/15 00:19:20;;;;;;;3.50;1.30;;;;;;;1.98;56.00;100263.38;107051;1260;59632;-40
2023/02/15 00:21:49;;;;;;;1.70;1.20;;;;;;;1.97;56.11;100261.63;106992;1259;61602;-40
2023/02/15 00:24:19;;;;;;;;;;;;;;;1.99;56.26;100262.66;107070;1259;74719;-40
2023/02/15 00:26:49;;;;;;;1.60;1.00;;;;;;;1.96;56.31;100262.91;107064;1260;69749;-40
2023/02/15 00:29:18;;;;;;;3.00;1.40;;;;;;;1.92;56.44;100259.40;107012;1260;73272;-40
2023/02/15 00:31:48;;;;;;;1.90;1.00;;;;;;;1.94;55.83;100260.89;107046;1260;60745;-40
2023/02/15 00:34:18;;;;;;;2.30;1.10;;;;;;;1.94;56.15;100266.88;107128;1260;61252;-40
2023/02/15 00:36:46;;;;;;;3.00;1.60;;;;;;;1.94;56.29;100266.61;107072;1260;73066;-40
2023/02/15 00:39:16;;;;;;;4.00;1.40;;;;;;;1.92;56.61;100269.90;107049;1261;69886;-40
2023/02/15 00:41:46;;;;;;;1.80;1.10;;;;;;;1.89;56.31;100272.38;107128;1260;73972;-40
2023/02/15 00:44:14;;;;;;;2.80;1.20;;;;;;;1.84;55.77;100272.14;107080;1260;60624;-40
2023/02/15 00:46:43;;;;;;;2.00;1.10;;;;;;;1.80;54.81;100271.27;107059;1261;59669;-40
2023/02/15 00:49:11;;;;;;;3.80;1.00;;;;;;;1.70;54.51;100260.17;107100;1260;73959;-40
2023/02/15 00:51:41;;;;;;;2.70;1.10;;;;;;;1.76;54.36;100274.40;107035;1261;69615;-40
2023/02/15 00:54:10;;;;;;;3.30;1.10;;;;;;;1.73;54.25;100273.40;107010;1260;71438;-40
2023/02/15 00:56:40;;;;;;;2.40;1.20;;;;;;;1.72;54.23;100270.05;106941;1259;60553;-40
2023/02/15 00:59:09;;;;;;;2.80;1.30;;;;;;;1.67;53.78;100268.37;107044;1263;61583;-40
2023/02/15 01:01:37;;;;;;;3.10;1.20;;;;;;;1.65;54.09;100274.38;107069;1260;74247;-40
2023/02/15 01:04:06;;;;;;;2.60;1.50;;;;;;;1.64;54.22;100273.48;107094;1263;69308;-40
2023/02/15 01:06:35;;;;;;;6.20;1.20;;;;;;;1.63;54.48;100271.77;107119;1260;73806;-40
2023/02/15 01:09:03;;;;;;;5.00;1.40;;;;;;;1.63;54.64;100271.66;106333;1260;1002949;-40
2023/02/15 01:11:32;;;;;;;2.20;1.20;;;;;;;1.65;54.88;100273.98;106347;1260;1003003;-41
2023/02/15 01:14:03;;;;;;;4.00;1.30;;;;;;;1.69;55.36;100273.64;107047;1260;73984;-41
2023/02/15 01:16:31;;;;;;;3.90;1.30;;;;;;;1.72;55.48;100279.04;107097;1260;69937;-40
2023/02/15 01:19:02;;;;;;;3.40;1.40;;;;;;;1.71;55.20;100281.55;107030;1260;72810;-41
2023/02/15 01:21:34;;;;;;;2.60;1.30;;;;;;;1.68;55.10;100280.13;106987;1260;60781;-41
2023/02/15 01:24:03;;;;;;;2.60;1.30;;;;;;;1.64;54.91;100278.88;107010;1260;61101;-41
2023/02/15 01:26:33;;;;;;;5.30;1.40;;;;;;;1.61;54.91;100277.06;107043;1260;74205;-41
2023/02/15 01:29:01;;;;;;;3.10;1.50;;;;;;;1.56;54.54;100275.98;107048;1260;69937;-40
2023/02/15 01:31:30;;;;;;;4.10;1.40;;;;;;;1.55;54.65;100279.15;107111;1261;73874;-40
2023/02/15 01:33:59;;;;;;;2.80;1.30;;;;;;;1.53;54.68;100278.63;107045;1260;60790;-40
2023/02/15 01:36:28;;;;;;;2.70;1.10;;;;;;;1.50;54.24;100272.08;106994;1260;61492;-40
2023/02/15 01:38:56;;;;;;;4.10;1.40;;;;;;;1.47;54.35;100272.84;107031;1260;73232;-40
2023/02/15 01:41:26;;;;;;;2.70;1.40;;;;;;;1.46;54.39;100276.31;106983;1261;69886;-41
2023/02/15 01:44:00;;;;;;;7.00;1.40;;;;;;;1.46;54.44;100277.06;107062;1260;73222;-41
2023/02/15 01:46:40;;;;;;;3.60;1.20;;;;;;;1.45;54.41;100279.37;107021;1261;60949;-40
2023/02/15 01:49:12;;;;;;;3.90;1.20;;;;;;;1.44;54.44;100277.56;107106;1260;59812;-41
2023/02/15 01:51:40;;;;;;;3.50;1.30;;;;;;;1.41;54.36;100277.04;106941;1260;74719;-40
2023/02/15 01:54:16;;;;;;;2.30;1.40;;;;;;;1.40;54.88;100285.98;107040;1261;69923;-40
2023/02/15 01:56:45;;;;;;;3.90;1.60;;;;;;;1.35;54.54;100284.50;107009;1261;73834;-40
2023/02/15 01:59:19;;;;;;;3.20;1.40;;;;;;;1.32;54.93;100287.40;106906;1260;60713;-41
2023/02/15 02:01:51;;;;;;;3.40;1.40;;;;;;;1.29;55.02;100283.36;107060;1259;60238;-40
2023/02/15 02:04:29;;;;;;;3.00;1.20;;;;;;;1.28;55.21;100287.64;107110;1263;74227;-40
2023/02/15 02:06:58;;;;;;;2.90;1.50;;;;;;;1.20;55.29;100278.64;107061;1259;68338;-40
2023/02/15 02:09:26;;;;;;;2.10;1.40;;;;;;;1.26;55.35;100290.31;107060;1260;70616;-41
2023/02/15 02:11:57;;;;;;;3.20;1.40;;;;;;;1.26;55.68;100286.42;106929;1260;60665;-41
2023/02/15 02:14:25;;;;;;;2.80;1.50;;;;;;;1.25;55.48;100287.88;107078;1261;61516;-40
2023/02/15 02:17:17;;;;;;;3.00;1.40;;;;;;;1.25;55.42;100292.82;106354;1260;1016857;-40
2023/02/15 02:20:14;;;;;;;2.90;1.40;;;;;;;1.12;55.70;100270.98;107076;1260;69959;-40
2023/02/15 02:23:08;;;;;;;3.80;1.60;;;;;;;1.24;55.73;100290.00;106995;1260;73805;-40
2023/02/15 02:26:10;;;;;;;3.20;1.50;;;;;;;1.24;56.05;100295.19;107035;1261;59584;-41
2023/02/15 02:28:57;;;;;;;3.30;1.70;;;;;;;1.24;56.34;100297.39;105495;1260;1003423;-40
2023/02/15 02:32:16;;;;;;;4.30;1.70;;;;;;;1.24;56.62;100303.48;106887;1260;73652;-40
2023/02/15 02:35:33;;;;;;;2.90;1.40;;;;;;;1.18;56.78;100294.69;106552;1267;69655;-39
2023/02/15 02:38:23;;;;;;;4.60;1.60;;;;;;;1.13;57.18;100301.70;106607;1269;73818;-40
2023/02/15 02:40:55;;;;;;;;;;;;;;;1.09;57.35;100311.66;107007;1261;60771;-39
2023/02/15 02:43:49;;;;;;;3.40;1.60;;;;;;;1.00;57.27;100307.36;107356;1257;61284;-39
2023/02/15 02:46:47;;;;;;;2.70;1.60;;;;;;;0.97;57.49;100312.39;107456;1257;73990;-40
2023/02/15 02:49:15;;;;;;;5.90;1.90;;;;;;;0.98;57.56;100311.05;106679;1255;1003047;-40
2023/02/15 02:51:44;;;;;;;4.30;1.90;;;;;;;0.97;57.52;100307.11;107401;1257;73924;-40
2023/02/15 02:54:12;;;;;;;4.40;2.00;;;;;;;0.97;57.48;100312.66;107250;1256;60697;-40
2023/02/15 02:56:47;;;;;;;1.50;1.30;;;;;;;0.97;57.60;100315.98;107497;1258;61329;-39
2023/02/15 02:59:21;;;;;;;3.10;1.50;;;;;;;0.96;57.32;100320.73;107270;1256;74221;-40
2023/02/15 03:02:04;;;;;;;3.40;1.50;;;;;;;0.97;57.54;100325.59;107472;1258;69781;-39
2023/02/15 03:04:35;;;;;;;5.00;1.80;;;;;;;0.99;57.50;100321.84;107460;1258;75256;-40
2023/02/15 03:07:09;;;;;;;4.60;1.80;;;;;;;1.00;57.32;100311.22;107355;1257;60588;-40
2023/02/15 03:09:43;;;;;;;4.30;1.80;;;;;;;1.03;57.26;100316.06;107489;1257;61295;-40
2023/02/15 03:12:34;;;;;;;4.60;1.70;;;;;;;1.06;57.21;100315.89;107406;1259;74230;-41
2023/02/15 03:15:22;;;;;;;3.20;1.60;;;;;;;1.09;57.25;100311.98;107229;1260;69762;-40
2023/02/15 03:17:57;;;;;;;3.10;1.60;;;;;;;1.10;56.96;100312.89;107309;1257;72831;-40
2023/02/15 03:20:29;;;;;;;4.00;1.70;;;;;;;1.10;57.02;100312.67;107108;1257;59775;-40
2023/02/15 03:23:09;;;;;;;3.60;1.80;;;;;;;1.11;56.79;100316.34;107266;1255;60002;-40
2023/02/15 03:25:42;;;;;;;4.30;1.90;;;;;;;1.13;57.01;100320.94;107360;1260;74201;-40
2023/02/15 03:28:14;;;;;;;5.00;2.20;;;;;;;1.14;56.96;100322.33;107408;1257;69927;-40
2023/02/15 03:30:45;;;;;;;5.10;2.10;;;;;;;1.16;57.21;100326.79;107267;1260;73738;-40
2023/02/15 03:33:13;;;;;;;3.40;1.70;;;;;;;1.18;57.29;100328.60;107257;1255;60753;-40
2023/02/15 03:35:56;;;;;;;3.20;1.70;;;;;;;1.20;57.28;100329.71;106590;1257;1002992;-40
2023/02/15 03:38:33;;;;;;;4.00;2.20;;;;;;;1.23;57.09;100326.81;107462;1257;73879;-40
2023/02/15 03:41:11;;;;;;;4.20;2.00;;;;;;;1.22;57.01;100329.92;107430;1257;69984;-40
2023/02/15 03:44:00;;;;;;;8.20;2.20;;;;;;;1.21;56.65;100330.73;107287;1257;73948;-40
2023/02/15 03:46:48;;;;;;;3.10;1.90;;;;;;;1.18;56.62;100330.58;107332;1257;59277;-40
2023/02/15 03:49:26;;;;;;;5.30;1.90;;;;;;;1.15;56.76;100333.64;107437;1254;61714;-40
2023/02/15 03:51:55;;;;;;;4.50;2.50;;;;;;;1.13;56.98;100333.65;106669;1257;1002997;-40
2023/02/15 03:54:47;;;;;;;4.90;2.20;;;;;;;1.13;56.88;100334.02;107473;1256;70063;-40
2023/02/15 04:03:15;;;;;;;3.40;1.90;;;;;;;1.05;57.02;100348.79;107393;1256;61689;-40
2023/02/15 04:05:44;;;;;;;3.60;1.90;;;;;;;1.03;57.05;100350.08;107414;1257;75191;-40
2023/02/15 04:08:13;;;;;;;3.70;1.80;;;;;;;1.03;57.24;100350.81;107391;1260;70232;-40
2023/02/15 04:10:54;;;;;;;7.40;2.60;;;;;;;1.02;57.32;100352.80;106732;1258;1003392;-40
2023/02/15 04:13:30;;;;;;;5.20;2.40;;;;;;;0.98;57.80;100350.89;107347;1257;60437;-40
2023/02/15 04:16:05;;;;;;;6.60;2.20;;;;;;;0.98;58.17;100360.18;107380;1260;61209;-40
2023/02/15 04:27:04;;;;;;;3.80;1.50;;;;;;;0.79;57.89;100361.56;107407;1260;60347;-40
2023/02/15 04:29:32;;;;;;;4.90;1.90;;;;;;;0.77;58.43;100362.11;107476;1256;60213;-40
2023/02/15 04:32:01;;;;;;;4.20;1.60;;;;;;;0.76;58.73;100360.03;107451;1258;74963;-40
2023/02/15 04:34:30;;;;;;;3.90;2.00;;;;;;;0.75;58.01;100358.20;107468;1255;69910;-40
2023/02/15 04:36:58;;;;;;;3.00;1.70;;;;;;;0.71;57.66;100362.49;107423;1254;72716;-40
2023/02/15 04:39:27;;;;;;;5.30;1.50;;;;;;;0.68;57.04;100361.74;107451;1255;60447;-40
2023/02/15 04:41:55;;;;;;;7.40;1.90;;;;;;;0.66;56.62;100362.08;107425;1258;60444;-40
2023/02/15 04:44:24;;;;;;;4.00;1.70;;;;;;;0.64;56.51;100360.80;107490;1256;74806;-40
2023/02/15 04:46:53;;;;;;;3.00;1.60;;;;;;;0.63;56.26;100366.92;107484;1257;69719;-40
2023/02/15 04:49:21;;;;;;;3.90;1.60;;;;;;;0.60;56.02;100369.39;107344;1259;73874;-40
2023/02/15 04:51:50;;;;;;;3.10;1.70;;;;;;;0.56;56.11;100368.97;107264;1259;60853;-40
2023/02/15 04:54:19;;;;;;;3.00;1.30;;;;;;;0.55;56.43;100371.79;107398;1259;61235;-40
2023/02/15 04:56:48;;;;;;;4.40;1.60;;;;;;;0.54;56.32;100372.70;107414;1258;74356;-40
2023/02/15 04:59:16;;;;;;;3.20;1.30;;;;;;;0.53;56.21;100378.20;107466;1260;69920;-40
2023/02/15 05:01:46;;;;;;;3.00;1.70;;;;;;;0.50;56.18;100377.52;107460;1257;73876;-40
2023/02/15 05:04:15;;;;;;;4.00;2.10;;;;;;;0.44;56.04;100374.19;107437;1255;60690;-40
2023/02/15 05:06:43;;;;;;;5.50;1.80;;;;;;;0.40;55.68;100375.64;107369;1254;60373;-40
2023/02/15 05:09:12;;;;;;;5.20;2.10;;;;;;;0.35;55.56;100376.77;107404;1258;74056;-40
2023/02/15 05:11:41;;;;;;;9.30;1.80;;;;;;;0.32;55.45;100378.42;105890;1259;1003859;-40
2023/02/15 05:14:10;;;;;;;3.50;1.90;;;;;;;0.29;55.84;100381.03;107417;1258;73892;-40
2023/02/15 05:16:38;;;;;;;6.10;2.40;;;;;;;0.24;55.58;100383.12;107412;1257;60430;-40
2023/02/15 05:19:07;;;;;;;4.70;2.10;;;;;;;0.21;55.93;100383.33;106714;1254;1003717;-40
2023/02/15 05:21:35;;;;;;;3.30;2.10;;;;;;;0.17;56.09;100385.73;107484;1256;75081;-40
2023/02/15 05:28:19;;;;;;;5.50;2.10;;;;;;;0.15;56.32;100387.32;107414;1259;68927;-40
2023/02/15 05:29:40;;;;;;;4.20;1.90;;;;;;;0.11;56.60;100395.20;107466;1259;59803;-40
2023/02/15 05:32:13;;;;;;;4.00;2.30;;;;;;;0.08;56.68;100400.86;107479;1257;61267;-40
2023/02/15 05:34:42;;;;;;;3.90;2.00;;;;;;;0.08;56.83;100407.47;107504;1260;73646;-40
2023/02/15 05:37:11;;;;;;;4.30;2.00;;;;;;;0.09;57.18;100408.86;107454;1258;69936;-40
2023/02/15 05:39:40;;;;;;;4.30;1.70;;;;;;;0.09;57.08;100419.30;107480;1259;72027;-40
2023/02/15 05:42:09;;;;;;;3.90;1.90;;;;;;;0.10;57.10;100424.32;107446;1257;60770;-40
2023/02/15 05:44:38;;;;;;;5.40;2.20;;;;;;;0.11;57.15;100420.80;107416;1259;61447;-40
2023/02/15 05:47:07;;;;;;;4.40;2.10;;;;;;;0.12;56.92;100418.88;107375;1257;74970;-40
2023/02/15 05:49:35;;;;;;;4.00;2.10;;;;;;;0.13;56.96;100414.63;107377;1257;69907;-40
2023/02/15 05:52:05;;;;;;;2.20;1.60;;;;;;;0.13;57.03;100412.17;106615;1257;1003052;-40
2023/02/15 05:54:35;;;;;;;4.60;2.30;;;;;;;0.12;57.16;100409.55;107362;1259;60433;-40
2023/02/15 05:57:03;;;;;;;4.40;1.90;;;;;;;0.12;57.15;100411.48;107430;1258;61495;-40
2023/02/15 05:59:31;;;;;;;5.60;2.30;;;;;;;0.11;57.08;100410.94;107428;1255;74996;-40
2023/02/15 06:02:00;;;;;;;5.60;2.00;;;;;;;0.09;57.00;100413.83;107359;1259;69960;-40
2023/02/15 06:04:28;;;;;;;5.20;2.00;;;;;;;0.11;57.12;100422.46;107438;1258;73870;-40
2023/02/15 06:06:57;;;;;;;3.10;1.80;;;;;;;0.11;57.26;100430.45;107537;1260;60850;-40
2023/02/15 06:09:26;;;;;;;4.70;2.00;;;;;;;0.10;57.28;100433.27;107531;1254;61498;-40
2023/02/15 06:11:54;;;;;;;4.10;2.00;;;;;;;0.11;57.39;100436.76;107487;1257;75108;-40
2023/02/15 06:14:23;;;;;;;6.40;2.00;;;;;;;0.14;58.28;100436.85;107445;1257;69918;-40
2023/02/15 06:16:51;;;;;;;3.70;1.70;;;;;;;0.17;59.69;100436.13;107504;1259;72801;-40
2023/02/15 06:19:20;;;;;;;6.50;1.80;;;;;;;0.23;60.68;100432.71;107499;1259;62550;-40
2023/02/15 06:21:51;;;;;;;6.00;2.10;;;;;;;0.34;61.31;100430.60;107405;1260;60360;-40
2023/02/15 06:24:20;;;;;;;3.30;1.60;;;;;;;0.40;62.00;100434.12;107366;1259;73836;-40
2023/02/15 06:26:49;;;;;;;3.90;1.60;;;;;;;0.43;62.18;100434.33;107372;1257;69918;-40
2023/02/15 06:29:17;;;;;;;6.20;2.40;;;;;;;0.47;62.45;100433.90;107337;1255;74013;-40
2023/02/15 06:31:46;;;;;;;3.80;2.10;;;;;;;0.51;62.50;100436.48;107468;1258;60745;-40
2023/02/15 06:34:15;;;;;;;6.70;2.70;;;;;;;0.52;62.41;100434.23;107348;1256;60825;-40
2023/02/15 06:36:43;;;;;;;7.60;3.60;;;;;;;0.54;62.64;100440.73;107441;1259;74991;-40
2023/02/15 06:39:11;;;;;;;7.50;3.40;;;;;;;0.43;62.76;100425.59;107295;1260;68931;-40
2023/02/15 06:41:41;;;;;;;6.20;3.10;;;;;;;0.52;62.76;100444.16;107363;1255;73928;-40
2023/02/15 06:44:09;;;;;;;6.10;2.20;;;;;;;0.46;63.10;100445.91;107369;1257;60841;-40
2023/02/15 06:46:38;;;;;;;5.30;2.10;;;;;;;0.42;63.27;100442.45;107468;1256;60517;-40
2023/02/15 06:49:07;;;;;;;4.40;1.80;;;;;;;0.44;63.29;100441.33;107408;1258;75038;-40
2023/02/15 06:51:35;;;;;;;4.60;2.10;;;;;;;0.46;63.62;100447.34;107447;1258;70119;-40
2023/02/15 06:54:05;;;;;;;3.60;1.90;;;;;;;0.41;63.85;100435.94;107440;1257;73907;-40
2023/02/15 06:56:34;;;;;;;5.20;2.10;;;;;;;0.50;64.03;100446.98;107440;1257;60856;-40
2023/02/15 06:59:02;;;;;;;2.80;1.90;;;;;;;0.49;63.81;100447.40;107492;1258;60325;-40
2023/02/15 07:01:31;;;;;;;2.50;1.70;;;;;;;0.48;63.85;100448.42;107438;1257;73820;-40
2023/02/15 07:04:00;;;;;;;4.90;2.00;;;;;;;0.50;63.70;100444.10;107302;1260;69095;-40
2023/02/15 07:06:32;;;;;;;6.40;2.00;;;;;;;0.51;63.84;100438.55;107300;1254;73850;-41
2023/02/15 07:09:01;;;;;;;4.90;2.00;;;;;;;0.51;63.74;100440.95;107338;1257;60567;-40
2023/02/15 07:14:18;;;;;;;5.50;1.80;;;;;;;0.55;63.27;100442.39;107406;1257;75095;-40
2023/02/15 07:16:46;;;;;;;5.10;2.00;;;;;;;0.62;63.34;100443.67;107430;1257;69917;-40
2023/02/15 07:19:14;;;;;;;5.60;2.00;;;;;;;0.69;63.12;100437.54;107428;1257;73921;-40
2023/02/15 07:21:45;;;;;;;;;;;;;;;0.72;62.39;100437.38;107386;1260;61510;-40
2023/02/15 07:24:14;;;;;;;4.00;2.00;;;;;;;0.66;62.56;100438.23;107416;1257;60392;-40
2023/02/15 07:26:45;;;;;;;5.10;2.40;;;;;;;0.64;62.43;100439.35;107339;1260;74998;-40
2023/02/15 07:29:15;;;;;;;4.00;2.10;;;;;;;0.60;62.36;100424.99;107453;1260;69808;-40
2023/02/15 07:31:45;;;;;;;4.50;2.10;;;;;;;0.74;62.06;100438.81;107445;1257;73849;-40
2023/02/15 07:34:13;;;;;;;;;;;;;;;0.75;61.82;100432.67;107404;1260;60437;-40
2023/02/15 07:36:44;;;;;;;7.80;2.60;;;;;;;0.72;62.02;100436.52;107460;1255;61401;-40
2023/02/15 07:39:12;;;;;;;7.50;2.70;;;;;;;0.70;61.96;100439.73;107455;1258;73863;-40
2023/02/15 07:41:40;;;;;;;4.50;2.10;;;;;;;0.69;61.59;100434.38;107470;1257;69613;-40
2023/02/15 07:44:16;;;;;;;5.30;2.40;;;;;;;0.77;61.34;100438.60;107422;1259;72318;-40
2023/02/15 07:46:44;;;;;;;5.10;2.30;;;;;;;0.88;61.16;100441.48;107492;1257;60770;-40
2023/02/15 07:49:15;;;;;;;8.80;3.70;;;;;;;1.01;60.93;100444.60;107327;1255;61257;-40
2023/02/15 07:51:43;;;;;;;7.10;2.70;;;;;;;1.13;60.16;100442.49;107488;1257;75035;-40
2023/02/15 07:54:12;;;;;;;6.70;2.40;;;;;;;1.26;59.90;100449.35;107344;1257;69900;-40
2023/02/15 07:56:41;;;;;;;8.70;3.00;;;;;;;1.33;59.25;100453.73;107364;1257;73887;-40
2023/02/15 07:59:11;;;;;;;6.80;2.60;;;;;;;1.37;59.15;100453.92;107417;1256;60797;-40
2023/02/15 08:01:39;;;;;;;8.20;3.80;;;;;;;1.41;59.24;100452.09;106629;1257;1003664;-40
2023/02/15 08:04:10;;;;;;;5.90;2.40;;;;;;;1.46;58.26;100451.27;107481;1257;75564;-40
2023/02/15 08:06:39;;;;;;;3.50;2.20;;;;;;;1.47;58.06;100449.14;107418;1257;68978;-40
2023/02/15 08:09:12;;;;;;;5.40;2.50;;;;;;;1.48;57.49;100448.70;107323;1258;72966;-40
2023/02/15 08:11:41;;;;;;;6.80;3.10;;;;;;;1.53;57.16;100443.77;107259;1257;60859;-40
2023/02/15 08:14:13;;;;;;;5.80;2.50;;;;;;;1.63;57.34;100437.74;107444;1255;61533;-40
2023/02/15 08:16:45;;;;;;;7.50;2.70;;;;;;;1.81;57.71;100442.42;107413;1257;75036;-40
2023/02/15 08:19:21;;;;;;;5.50;2.20;;;;;;;1.96;57.51;100437.70;107364;1256;69925;-40
2023/02/15 08:21:53;;;;;;;3.90;2.10;;;;;;;2.08;57.13;100442.05;107294;1258;73451;-40
2023/02/15 08:24:23;;;;;;;5.90;2.30;;;;;;;2.22;57.02;100441.33;107463;1257;60492;-40
2023/02/15 08:26:53;;;;;;;6.20;2.60;;;;;;;2.32;56.10;100442.39;107444;1256;61526;-40
2023/02/15 08:29:23;;;;;;;5.70;2.50;;;;;;;2.38;56.16;100444.27;107473;1257;75098;-40
2023/02/15 08:32:01;;;;;;;;;;;;;;;2.49;56.03;100447.93;107508;1257;68117;-40
2023/02/15 08:34:35;;;;;;;7.10;3.00;;;;;;;2.58;55.55;100445.98;106707;1257;1003094;-40
2023/02/15 08:37:04;;;;;;;6.10;3.20;;;;;;;2.66;55.11;100446.89;107416;1258;60485;-40
2023/02/15 08:39:34;;;;;;;9.70;3.00;;;;;;;2.82;54.76;100447.23;107431;1257;61179;-40
2023/02/15 08:42:03;;;;;;;6.40;2.20;;;;;;;3.03;54.00;100448.30;107469;1257;74574;-40
2023/02/15 08:44:33;;;;;;;4.10;2.30;;;;;;;3.18;53.25;100449.48;107496;1257;69936;-40
2023/02/15 08:47:03;;;;;;;6.40;3.30;;;;;;;3.29;52.84;100448.11;107441;1258;73871;-40
2023/02/15 08:49:32;;;;;;;5.80;2.50;;;;;;;3.41;52.56;100448.63;107292;1257;60381;-40
2023/02/15 08:52:01;;;;;;;4.60;2.30;;;;;;;3.53;52.00;100449.79;107325;1260;61577;-40
2023/02/15 08:54:30;;;;;;;4.50;2.20;;;;;;;3.65;51.32;100446.73;107418;1255;74998;-40
2023/02/15 08:56:59;;;;;;;4.80;2.10;;;;;;;3.74;50.92;100445.83;107392;1257;69849;-40
2023/02/15 08:59:28;;;;;;;4.10;2.20;;;;;;;3.82;50.79;100447.27;107365;1258;73831;-40
2023/02/15 09:01:56;;;;;;;4.80;2.20;;;;;;;3.89;50.43;100454.64;107343;1260;61133;-40
2023/02/15 09:04:25;;;;;;;4.80;2.30;;;;;;;3.95;49.95;100454.14;107372;1257;61520;-40
2023/02/15 09:06:54;;;;;;;5.20;2.10;;;;;;;4.01;49.77;100447.40;107375;1256;75018;-40
2023/02/15 09:09:30;;;;;;;3.20;2.00;;;;;;;4.08;49.02;100444.84;107382;1257;69954;-40
2023/02/15 09:11:59;;;;;;;3.20;1.80;;;;;;;4.08;47.73;100449.51;107327;1255;71614;-40
2023/02/15 09:14:28;;;;;;;4.70;2.10;;;;;;;3.99;47.22;100444.21;107406;1258;60307;-40
2023/02/15 09:16:56;;;;;;;3.40;1.80;;;;;;;3.94;47.65;100453.23;107420;1256;61239;-40
2023/02/15 09:19:25;;;;;;;3.90;2.20;;;;;;;3.96;47.56;100453.58;107465;1258;74950;-40
2023/02/15 09:21:58;;;;;;;5.00;2.40;;;;;;;3.99;47.78;100456.18;107486;1259;69788;-40
2023/02/15 09:24:27;;;;;;;2.70;1.50;;;;;;;4.07;47.93;100456.13;107518;1257;73689;-40
2023/02/15 09:26:59;;;;;;;6.90;2.40;;;;;;;4.18;46.96;100458.50;107430;1254;60840;-40
2023/02/15 09:29:28;;;;;;;5.00;2.00;;;;;;;4.23;45.72;100457.95;107440;1257;61406;-40
2023/02/15 09:31:56;;;;;;;4.20;2.20;;;;;;;4.24;45.94;100457.71;107459;1257;74888;-40
2023/02/15 09:34:25;;;;;;;2.70;1.60;;;;;;;4.30;46.42;100457.09;107507;1257;69877;-40
2023/02/15 09:36:53;;;;;;;7.60;2.00;;;;;;;4.43;46.27;100455.44;107479;1254;72370;-40
2023/02/15 09:39:23;;;;;;;3.90;2.20;;;;;;;4.59;46.05;100453.00;107517;1257;60468;-40
2023/02/15 09:41:54;;;;;;;3.50;2.30;;;;;;;4.67;46.08;100447.28;107427;1258;61584;-40
2023/02/15 09:44:27;;;;;;;3.80;1.80;;;;;;;4.71;45.73;100452.80;107433;1257;74586;-40
2023/02/15 09:47:12;;;;;;;3.20;1.70;;;;;;;4.79;44.86;100449.98;107447;1258;69793;-40
2023/02/15 09:50:16;;;;;;;5.70;2.60;;;;;;;4.85;44.38;100447.02;107696;1256;73529;-40
2023/02/15 13:57:27;;;;;;;2.40;1.60;;;;;;;10.90;24.22;100396.39;105016;1282;612285;-36
2023/02/15 14:00:18;;;;;;;2.50;1.50;;;;;;;9.88;24.87;100398.98;106552;1264;155345;-36
2023/02/15 14:03:13;;;;;;;2.10;1.50;;;;;;;9.03;26.39;100403.08;106548;1263;61658;-36
2023/02/15 14:05:48;;;;;;;2.20;1.20;;;;;;;8.57;27.40;100407.38;106765;1263;73086;-36
2023/02/15 14:08:49;;;;;;;3.10;1.40;;;;;;;8.26;27.29;100408.03;106854;1263;69590;-36
2023/02/15 14:11:39;;;;;;;3.60;1.60;;;;;;;7.81;27.57;100414.14;106877;1264;73630;-37
2023/02/15 14:14:11;;;;;;;2.60;1.50;;;;;;;7.42;28.07;100406.80;107083;1260;60735;-37
2023/02/15 14:16:58;;;;;;;2.50;1.40;;;;;;;7.17;28.64;100408.36;107077;1259;61621;-37
2023/02/15 14:19:39;;;;;;;1.60;1.10;;;;;;;6.88;28.59;100407.30;107081;1259;72561;-37
2023/02/15 14:22:17;;;;;;;3.60;1.40;;;;;;;6.68;28.58;100407.62;107115;1260;70041;-38
2023/02/15 14:25:01;;;;;;;3.30;1.30;;;;;;;6.53;29.00;100404.30;107102;1260;73540;-38
2023/02/15 14:27:54;;;;;;;1.50;1.10;;;;;;;6.46;29.02;100403.96;107038;1259;61023;-38
2023/02/15 14:30:28;;;;;;;3.20;1.70;;;;;;;6.54;29.43;100401.89;107051;1261;61467;-37
2023/02/15 14:33:10;;;;;;;1.90;1.50;;;;;;;6.76;29.42;100402.48;107101;1260;73963;-38
2023/02/15 14:35:38;;;;;;;2.90;1.90;;;;;;;7.07;28.97;100391.41;107089;1260;69743;-38
2023/02/15 14:38:33;;;;;;;3.60;1.30;;;;;;;7.34;28.45;100402.27;107056;1261;73597;-38
2023/02/15 14:41:07;;;;;;;2.30;1.60;;;;;;;7.29;28.67;100408.66;107076;1263;60612;-38
2023/02/15 14:43:38;;;;;;;2.60;1.50;;;;;;;7.05;28.60;100407.60;106903;1260;61330;-37
2023/02/15 14:46:08;;;;;;;2.50;1.50;;;;;;;6.72;28.81;100405.83;107084;1258;74351;-38
2023/02/15 14:48:53;;;;;;;1.70;1.10;;;;;;;6.42;29.39;100407.04;107080;1260;69962;-38
2023/02/15 14:51:42;;;;;;;2.90;1.40;;;;;;;6.17;30.03;100406.05;107098;1259;73605;-37
2023/02/15 14:54:17;;;;;;;3.60;1.80;;;;;;;5.99;30.28;100409.32;107110;1259;60756;-37
2023/02/15 14:57:01;;;;;;;4.00;1.50;;;;;;;5.87;30.52;100412.11;107021;1261;61188;-38
2023/02/15 14:59:58;;;;;;;2.40;1.40;;;;;;;5.69;30.29;100415.33;107048;1260;74144;-38
2023/02/15 15:02:38;;;;;;;2.10;1.00;;;;;;;5.44;30.87;100413.41;107050;1263;69803;-38
2023/02/15 15:05:10;;;;;;;2.30;1.20;;;;;;;5.25;31.61;100413.19;107063;1260;73872;-38
2023/02/15 15:07:43;;;;;;;3.20;1.50;;;;;;;5.13;32.30;100418.41;107087;1259;60464;-38
2023/02/15 15:10:17;;;;;;;4.00;2.30;;;;;;;5.08;32.66;100419.53;107089;1260;61229;-37
2023/02/15 15:12:49;;;;;;;4.70;3.10;;;;;;;5.08;33.15;100423.26;107065;1260;73375;-37
2023/02/15 15:15:27;;;;;;;5.70;3.00;;;;;;;5.07;33.52;100427.35;107082;1260;69042;-37
2023/02/15 15:18:09;;;;;;;4.90;2.60;;;;;;;5.06;34.13;100425.70;107049;1261;73861;-37
2023/02/15 15:20:41;;;;;;;5.10;2.40;;;;;;;5.01;34.62;100425.58;107090;1260;60636;-37
2023/02/15 15:23:16;;;;;;;4.40;3.10;;;;;;;4.95;35.32;100426.75;107103;1260;61549;-37
2023/02/15 15:25:57;;;;;;;5.50;3.20;;;;;;;4.90;35.51;100428.34;107100;1260;72401;-37
2023/02/15 15:28:35;;;;;;;7.20;4.10;;;;;;;4.85;35.75;100428.13;107144;1260;67863;-37
2023/02/15 15:31:09;;;;;;;4.90;3.20;;;;;;;4.79;36.07;100431.17;107688;1254;73023;-37
2023/02/15 15:33:46;;;;;;;5.70;2.40;;;;;;;4.73;36.55;100436.31;107702;1254;60736;-37
2023/02/15 15:37:01;;;;;;;3.20;2.10;;;;;;;4.68;36.76;100442.65;107508;1254;61690;-37
2023/02/15 15:39:51;;;;;;;4.40;2.10;;;;;;;4.61;37.04;100443.50;107369;1252;74262;-37
2023/02/15 15:42:58;;;;;;;4.00;2.20;;;;;;;4.57;37.06;100446.14;107670;1253;69913;-37
2023/02/15 15:45:58;;;;;;;5.80;2.90;;;;;;;4.55;37.15;100447.79;107383;1254;73870;-37
2023/02/15 15:48:33;;;;;;;3.00;2.00;;;;;;;4.51;37.14;100449.90;107559;1254;60867;-37
2023/02/15 15:51:25;;;;;;;4.20;2.40;;;;;;;4.44;37.43;100453.13;107467;1259;61490;-37
2023/02/15 15:53:54;;;;;;;4.50;1.90;;;;;;;4.44;37.85;100452.48;107532;1254;73111;-37
2023/02/15 15:56:31;;;;;;;5.10;2.40;;;;;;;4.43;37.93;100453.41;107556;1254;69834;-37
2023/02/15 15:59:05;;;;;;;5.20;2.80;;;;;;;4.42;38.35;100455.77;107640;1254;73850;-37
2023/02/15 16:01:42;;;;;;;8.60;4.20;;;;;;;4.40;38.25;100452.22;105188;1253;1017726;-37
2023/02/15 16:04:11;;;;;;;6.30;3.00;;;;;;;4.34;38.38;100449.23;107733;1252;59388;-37
2023/02/15 16:06:41;;;;;;;5.70;3.30;;;;;;;4.31;38.89;100450.46;107768;1253;74323;-37
2023/02/15 16:09:26;;;;;;;5.20;3.20;;;;;;;4.28;38.98;100453.26;107568;1254;70009;-37
2023/02/15 16:12:02;;;;;;;4.50;2.30;;;;;;;4.20;39.33;100452.88;107756;1254;71482;-37
2023/02/15 16:14:38;;;;;;;4.50;2.90;;;;;;;4.14;39.48;100456.52;107528;1254;60810;-37
2023/02/15 16:17:13;;;;;;;4.50;2.60;;;;;;;4.09;40.01;100456.48;107537;1254;61615;-37
2023/02/15 16:19:41;;;;;;;6.30;2.70;;;;;;;4.03;40.36;100464.61;107536;1254;74157;-37